createdAt,value
2023-02-12T00:01:27.136Z,60.90
2023-02-12T00:03:54.739Z,60.80
2023-02-12T00:06:22.644Z,60.80
2023-02-12T00:08:53.550Z,60.80
2023-02-12T00:11:23.638Z,60.80
2023-02-12T00:13:51.810Z,60.80
2023-02-12T00:16:24.574Z,61.00
2023-02-12T00:18:53.672Z,61.10
2023-02-12T00:21:21.515Z,61.20
2023-02-12T00:23:49.466Z,61.30
2023-02-12T00:26:22.067Z,61.50
2023-02-12T00:28:49.832Z,61.70
2023-02-12T00:31:20.252Z,61.80
2023-02-12T00:33:48.117Z,62.00
2023-02-12T00:36:18.480Z,62.00
2023-02-12T00:38:49.576Z,62.20
2023-02-12T00:41:25.491Z,62.30
2023-02-12T00:43:53.594Z,62.50
2023-02-12T00:46:21.401Z,62.60
2023-02-12T00:48:48.895Z,63.00
2023-02-12T00:51:16.379Z,63.30
2023-02-12T00:53:45.899Z,63.40
2023-02-12T00:56:18.111Z,63.80
2023-02-12T00:58:45.399Z,63.90
2023-02-12T01:01:12.768Z,64.10
2023-02-12T01:03:40.088Z,64.40
2023-02-12T01:06:07.761Z,64.60
2023-02-12T01:08:35.299Z,64.70
2023-02-12T01:11:06.342Z,65.00
2023-02-12T01:13:34.899Z,65.00
2023-02-12T01:16:18.533Z,65.00
2023-02-12T01:18:46.924Z,65.70
2023-02-12T01:21:23.566Z,65.20
2023-02-12T01:23:53.246Z,65.70
2023-02-12T01:26:24.136Z,65.60
2023-02-12T01:28:56.684Z,65.50
2023-02-12T01:31:26.979Z,65.70
2023-02-12T01:33:56.773Z,65.60
2023-02-12T01:36:24.764Z,65.70
2023-02-12T01:38:52.433Z,65.70
2023-02-12T01:41:28.869Z,65.70
2023-02-12T01:44:28.384Z,66.00
2023-02-12T01:47:01.341Z,66.20
2023-02-12T01:49:42.905Z,66.00
2023-02-12T01:52:27.643Z,65.90
2023-02-12T01:54:58.956Z,66.20
2023-02-12T01:57:28.545Z,66.00
2023-02-12T01:59:57.663Z,65.90
2023-02-12T02:02:27.646Z,66.00
2023-02-12T02:05:00.136Z,66.00
2023-02-12T02:07:28.136Z,66.20
2023-02-12T02:09:57.071Z,66.00
2023-02-12T02:12:44.507Z,66.10
2023-02-12T02:15:12.355Z,66.00
2023-02-12T02:18:14.335Z,66.00
2023-02-12T02:21:29.587Z,66.30
2023-02-12T02:24:02.598Z,66.30
2023-02-12T02:26:35.827Z,66.10
2023-02-12T02:29:22.175Z,66.10
2023-02-12T02:32:16.257Z,66.20
2023-02-12T02:35:01.857Z,66.20
2023-02-12T02:37:56.281Z,66.10
2023-02-12T02:40:29.259Z,66.20
2023-02-12T02:43:18.260Z,66.00
2023-02-12T02:45:56.144Z,66.20
2023-02-12T02:48:38.690Z,66.20
2023-02-12T02:51:20.243Z,66.10
2023-02-12T02:54:13.782Z,66.00
2023-02-12T02:56:47.430Z,66.00
2023-02-12T02:59:25.644Z,65.90
2023-02-12T03:02:07.561Z,66.00
2023-02-12T03:04:41.222Z,66.10
2023-02-12T03:07:19.858Z,65.70
2023-02-12T03:09:58.858Z,65.60
2023-02-12T03:12:41.282Z,65.70
2023-02-12T03:15:39.195Z,65.80
2023-02-12T03:18:11.617Z,65.60
2023-02-12T03:21:07.296Z,65.70
2023-02-12T03:23:49.450Z,65.80
2023-02-12T03:26:24.740Z,66.10
2023-02-12T03:28:56.895Z,66.80
2023-02-12T03:31:29.928Z,66.00
2023-02-12T03:34:11.398Z,66.00
2023-02-12T03:36:46.001Z,66.30
2023-02-12T03:39:47.099Z,66.30
2023-02-12T03:42:29.794Z,66.70
2023-02-12T03:45:10.243Z,66.70
2023-02-12T03:48:04.976Z,67.00
2023-02-12T03:50:35.705Z,67.20
2023-02-12T03:53:04.085Z,67.10
2023-02-12T03:55:35.412Z,66.90
2023-02-12T03:58:08.981Z,67.00
2023-02-12T04:00:38.368Z,67.00
2023-02-12T04:03:07.242Z,67.10
2023-02-12T04:05:36.656Z,67.30
2023-02-12T04:08:08.415Z,67.30
2023-02-12T04:10:47.612Z,67.70
2023-02-12T04:13:34.281Z,67.50
2023-02-12T04:16:38.095Z,67.60
2023-02-12T04:19:10.361Z,67.90
2023-02-12T04:21:47.289Z,67.70
2023-02-12T04:25:03.219Z,67.60
2023-02-12T04:27:40.245Z,67.90
2023-02-12T04:30:12.318Z,67.90
2023-02-12T04:32:57.678Z,68.00
2023-02-12T04:35:52.812Z,67.90
2023-02-12T04:38:28.070Z,68.30
2023-02-12T04:40:55.721Z,68.00
2023-02-12T04:43:37.364Z,68.00
2023-02-12T04:46:09.744Z,68.30
2023-02-12T04:48:56.537Z,68.10
2023-02-12T04:51:24.120Z,68.40
2023-02-12T04:53:53.555Z,68.10
2023-02-12T04:56:20.835Z,68.20
2023-02-12T04:58:48.124Z,68.20
2023-02-12T05:01:15.580Z,68.20
2023-02-12T05:03:45.416Z,68.30
2023-02-12T05:06:12.701Z,68.90
2023-02-12T05:08:42.824Z,68.20
2023-02-12T05:11:10.898Z,68.10
2023-02-12T05:13:39.062Z,68.10
2023-02-12T05:16:10.339Z,68.10
2023-02-12T05:18:38.312Z,68.20
2023-02-12T05:21:05.956Z,68.20
2023-02-12T05:23:36.485Z,68.10
2023-02-12T05:26:07.102Z,68.20
2023-02-12T05:28:36.846Z,68.20
2023-02-12T05:31:09.490Z,68.10
2023-02-12T05:33:39.164Z,68.10
2023-02-12T05:36:09.355Z,68.10
2023-02-12T05:38:39.522Z,68.10
2023-02-12T05:41:14.263Z,68.10
2023-02-12T05:43:44.479Z,68.10
2023-02-12T05:46:12.482Z,68.00
2023-02-12T05:48:40.309Z,67.90
2023-02-12T05:51:16.466Z,68.00
2023-02-12T05:53:43.841Z,68.00
2023-02-12T05:56:25.042Z,68.00
2023-02-12T05:59:14.252Z,68.20
2023-02-12T06:01:43.477Z,68.00
2023-02-12T06:04:29.307Z,67.90
2023-02-12T06:06:57.013Z,68.10
2023-02-12T06:09:24.921Z,67.90
2023-02-12T06:11:52.357Z,67.90
2023-02-12T06:14:20.892Z,68.00
2023-02-12T06:16:52.440Z,68.10
2023-02-12T06:19:22.128Z,68.10
2023-02-12T06:21:49.415Z,68.20
2023-02-12T06:24:19.621Z,68.10
2023-02-12T06:26:52.463Z,68.20
2023-02-12T06:29:21.115Z,68.30
2023-02-12T06:31:50.846Z,68.20
2023-02-12T06:34:18.470Z,68.20
2023-02-12T06:36:47.171Z,68.00
2023-02-12T06:39:15.922Z,68.10
2023-02-12T06:41:44.078Z,68.10
2023-02-12T06:44:15.214Z,68.10
2023-02-12T06:46:45.993Z,68.10
2023-02-12T06:49:16.625Z,68.20
2023-02-12T06:51:44.004Z,68.20
2023-02-12T06:54:19.526Z,68.10
2023-02-12T06:56:46.870Z,68.20
2023-02-12T06:59:20.089Z,68.10
2023-02-12T07:01:49.986Z,68.50
2023-02-12T07:04:19.624Z,68.10
2023-02-12T07:06:46.957Z,68.10
2023-02-12T07:09:14.240Z,68.10
2023-02-12T07:11:41.489Z,68.10
2023-02-12T07:14:13.427Z,68.20
2023-02-12T07:16:40.799Z,68.20
2023-02-12T07:19:08.195Z,68.30
2023-02-12T07:21:35.521Z,68.20
2023-02-12T07:24:02.891Z,68.20
2023-02-12T07:26:30.210Z,68.20
2023-02-12T07:28:58.856Z,68.30
2023-02-12T07:31:26.252Z,68.30
2023-02-12T07:33:55.883Z,68.30
2023-02-12T07:36:24.936Z,68.30
2023-02-12T07:38:52.345Z,68.30
2023-02-12T07:41:22.156Z,68.30
2023-02-12T07:43:54.878Z,68.30
2023-02-12T07:46:29.892Z,68.40
2023-02-12T07:49:02.679Z,68.40
2023-02-12T07:51:30.607Z,68.50
2023-02-12T07:53:57.929Z,68.30
2023-02-12T07:56:30.888Z,68.30
2023-02-12T07:59:05.726Z,68.50
2023-02-12T08:01:36.547Z,68.50
2023-02-12T08:04:14.724Z,68.50
2023-02-12T08:06:46.907Z,68.50
2023-02-12T08:09:20.410Z,68.40
2023-02-12T08:11:52.753Z,68.50
2023-02-12T08:14:21.618Z,68.60
2023-02-12T08:16:54.312Z,68.70
2023-02-12T08:19:25.800Z,68.60
2023-02-12T08:21:57.398Z,68.70
2023-02-12T08:24:25.258Z,69.30
2023-02-12T08:26:52.738Z,68.70
2023-02-12T08:29:24.187Z,68.80
2023-02-12T08:31:56.665Z,68.90
2023-02-12T08:34:29.966Z,68.80
2023-02-12T08:37:00.003Z,68.80
2023-02-12T08:39:29.393Z,68.80
2023-02-12T08:42:00.695Z,68.80
2023-02-12T08:44:29.005Z,68.80
2023-02-12T08:46:56.463Z,68.80
2023-02-12T08:49:27.442Z,68.80
2023-02-12T08:51:58.800Z,69.00
2023-02-12T08:54:30.569Z,69.00
2023-02-12T08:56:58.698Z,69.00
2023-02-12T08:59:28.128Z,68.90
2023-02-12T09:01:57.856Z,68.70
2023-02-12T09:04:27.711Z,68.80
2023-02-12T09:06:55.802Z,69.00
2023-02-12T09:09:23.406Z,69.10
2023-02-12T09:11:50.847Z,69.10
2023-02-12T09:14:23.593Z,69.30
2023-02-12T09:16:54.758Z,69.40
2023-02-12T09:19:22.510Z,69.30
2023-02-12T09:21:56.130Z,69.90
2023-02-12T09:24:25.542Z,69.50
2023-02-12T09:26:55.690Z,69.40
2023-02-12T09:29:25.459Z,69.50
2023-02-12T09:31:52.917Z,69.50
2023-02-12T09:34:20.446Z,69.70
2023-02-12T09:36:47.774Z,69.70
2023-02-12T09:39:15.091Z,69.60
2023-02-12T09:41:59.776Z,69.50
2023-02-12T09:44:42.470Z,69.80
2023-02-12T09:47:24.176Z,69.70
2023-02-12T09:49:53.904Z,69.90
2023-02-12T09:52:26.625Z,69.70
2023-02-12T09:54:54.134Z,69.30
2023-02-12T09:57:31.185Z,69.60
2023-02-12T10:00:08.427Z,69.70
2023-02-12T10:02:37.474Z,69.80
2023-02-12T10:05:14.608Z,69.60
2023-02-12T10:07:53.662Z,69.60
2023-02-12T10:10:51.521Z,69.70
2023-02-12T10:13:31.411Z,70.00
2023-02-12T10:16:10.301Z,69.80
2023-02-12T10:18:57.913Z,69.80
2023-02-12T10:21:38.794Z,70.00
2023-02-12T10:24:29.682Z,70.40
2023-02-12T10:27:01.224Z,69.80
2023-02-12T10:29:38.169Z,69.50
2023-02-12T10:32:12.030Z,69.70
2023-02-12T10:34:42.580Z,69.50
2023-02-12T10:37:20.511Z,69.60
2023-02-12T10:39:55.222Z,69.60
2023-02-12T10:42:44.325Z,69.80
2023-02-12T10:45:24.029Z,69.70
2023-02-12T10:48:03.992Z,69.80
2023-02-12T10:50:47.005Z,69.70
2023-02-12T10:53:21.799Z,69.80
2023-02-12T10:56:04.176Z,69.80
2023-02-12T10:58:31.547Z,69.60
2023-02-12T11:01:01.269Z,69.60
2023-02-12T11:03:34.413Z,69.70
2023-02-12T11:06:23.364Z,69.50
2023-02-12T11:08:50.698Z,69.70
2023-02-12T11:11:31.420Z,69.40
2023-02-12T11:14:04.011Z,69.30
2023-02-12T11:16:37.605Z,69.30
2023-02-12T11:19:07.849Z,69.30
2023-02-12T11:21:38.822Z,69.20
2023-02-12T11:24:26.290Z,69.10
2023-02-12T11:27:11.931Z,69.20
2023-02-12T11:29:42.101Z,69.30
2023-02-12T11:32:18.923Z,69.00
2023-02-12T11:35:06.068Z,68.90
2023-02-12T11:37:36.460Z,68.90
2023-02-12T11:40:04.466Z,68.70
2023-02-12T11:42:38.430Z,68.70
2023-02-12T11:45:08.558Z,69.00
2023-02-12T11:47:40.322Z,68.80
2023-02-12T11:50:26.487Z,68.80
2023-02-12T11:53:04.651Z,68.90
2023-02-12T11:55:34.983Z,68.70
2023-02-12T11:58:16.125Z,68.60
2023-02-12T12:00:53.766Z,68.60
2023-02-12T12:03:26.630Z,68.80
2023-02-12T12:06:01.034Z,68.60
2023-02-12T12:08:48.920Z,68.40
2023-02-12T12:11:29.497Z,68.50
2023-02-12T12:14:03.406Z,68.30
2023-02-12T12:17:00.413Z,68.30
2023-02-12T12:19:52.735Z,68.20
2023-02-12T12:22:31.745Z,68.80
2023-02-12T12:25:06.311Z,68.00
2023-02-12T12:28:03.122Z,67.90
2023-02-12T12:30:43.316Z,68.00
2023-02-12T12:33:19.742Z,67.90
2023-02-12T12:36:17.276Z,68.10
2023-02-12T12:39:08.423Z,68.10
2023-02-12T12:42:11.226Z,68.10
2023-02-12T12:44:47.931Z,68.10
2023-02-12T12:47:27.268Z,68.10
2023-02-12T12:50:12.765Z,68.10
2023-02-12T12:52:45.948Z,68.00
2023-02-12T12:55:24.529Z,67.90
2023-02-12T12:58:10.920Z,68.00
2023-02-12T13:01:08.254Z,68.20
2023-02-12T13:04:09.065Z,67.90
2023-02-12T13:06:51.240Z,68.00
2023-02-12T13:09:30.762Z,68.00
2023-02-12T13:12:19.129Z,67.90
2023-02-12T13:15:00.154Z,67.60
2023-02-12T13:17:30.957Z,67.70
2023-02-12T13:20:04.241Z,67.40
2023-02-12T13:22:38.036Z,67.20
2023-02-12T13:25:18.943Z,67.20
2023-02-12T13:27:48.045Z,67.10
2023-02-12T13:30:18.238Z,67.10
2023-02-12T13:33:07.091Z,67.00
2023-02-12T13:35:36.906Z,67.00
2023-02-12T13:38:09.456Z,66.90
2023-02-12T13:40:39.660Z,66.90
2023-02-12T13:43:16.018Z,66.70
2023-02-12T13:45:56.358Z,66.90
2023-02-12T13:48:40.077Z,66.90
2023-02-12T13:51:24.438Z,66.90
2023-02-12T13:53:54.632Z,66.70
2023-02-12T13:56:33.034Z,66.70
2023-02-12T13:59:00.995Z,66.70
2023-02-12T14:01:47.143Z,67.20
2023-02-12T14:04:32.133Z,66.60
2023-02-12T14:07:12.543Z,66.50
2023-02-12T14:09:42.105Z,66.40
2023-02-12T14:12:35.049Z,66.40
2023-02-12T14:15:21.804Z,66.50
2023-02-12T14:18:02.358Z,66.50
2023-02-12T14:20:31.447Z,66.40
2023-02-12T14:23:24.420Z,66.40
2023-02-12T14:26:02.165Z,66.40
2023-02-12T14:28:39.789Z,66.50
2023-02-12T14:31:19.907Z,66.40
2023-02-12T14:33:50.108Z,66.50
2023-02-12T14:36:32.870Z,66.40
2023-02-12T14:39:20.600Z,66.60
2023-02-12T14:42:10.166Z,66.60
2023-02-12T14:44:49.039Z,66.70
2023-02-12T14:47:28.649Z,66.70
2023-02-12T14:50:01.730Z,66.70
2023-02-12T14:52:38.588Z,66.80
2023-02-12T14:55:18.945Z,66.90
2023-02-12T14:57:47.117Z,66.80
2023-02-12T15:00:17.395Z,66.70
2023-02-12T15:03:07.899Z,66.70
2023-02-12T15:05:59.516Z,66.70
2023-02-12T15:08:31.967Z,66.60
2023-02-12T15:11:39.371Z,66.60
2023-02-12T15:14:13.438Z,66.70
2023-02-12T15:16:54.089Z,66.60
2023-02-12T15:19:37.443Z,66.60
2023-02-12T15:22:20.354Z,66.80
2023-02-12T15:24:47.857Z,66.70
2023-02-12T15:27:19.205Z,67.40
2023-02-12T15:29:50.023Z,66.80
2023-02-12T15:32:27.215Z,66.80
2023-02-12T15:34:55.986Z,66.90
2023-02-12T15:37:33.146Z,66.80
2023-02-12T15:40:03.720Z,66.90
2023-02-12T15:42:39.145Z,66.90
2023-02-12T15:45:15.478Z,67.00
2023-02-12T15:47:54.540Z,66.90
2023-02-12T15:50:22.703Z,66.90
2023-02-12T15:52:51.010Z,66.90
2023-02-12T15:55:22.459Z,66.90
2023-02-12T15:57:52.338Z,66.90
2023-02-12T16:00:32.723Z,67.00
2023-02-12T16:02:59.994Z,66.90
2023-02-12T16:05:27.996Z,66.90
2023-02-12T16:07:55.778Z,66.90
2023-02-12T16:10:23.648Z,66.90
2023-02-12T16:12:51.903Z,67.50
2023-02-12T16:15:28.722Z,66.80
2023-02-12T16:18:25.432Z,66.80
2023-02-12T16:21:13.408Z,66.90
2023-02-12T16:23:44.443Z,66.80
2023-02-12T16:26:24.129Z,66.70
2023-02-12T16:28:56.713Z,66.60
2023-02-12T16:31:27.214Z,66.60
2023-02-12T16:33:58.636Z,66.70
2023-02-12T16:36:28.482Z,66.70
2023-02-12T16:39:01.287Z,66.70
2023-02-12T16:41:33.384Z,66.60
2023-02-12T16:44:00.632Z,66.60
2023-02-12T16:46:30.734Z,66.40
2023-02-12T16:49:04.634Z,66.50
2023-02-12T16:51:34.381Z,66.50
2023-02-12T16:54:04.003Z,66.50
2023-02-12T16:56:40.660Z,66.40
2023-02-12T16:59:10.673Z,66.40
2023-02-12T17:02:13.541Z,66.50
2023-02-12T17:04:41.297Z,66.40
2023-02-12T17:07:24.153Z,66.30
2023-02-12T17:09:51.438Z,66.30
2023-02-12T17:12:18.809Z,66.30
2023-02-12T17:14:49.036Z,66.30
2023-02-12T17:17:16.571Z,66.40
2023-02-12T17:19:43.913Z,66.40
2023-02-12T17:22:21.765Z,66.60
2023-02-12T17:24:51.616Z,66.80
2023-02-12T17:27:21.666Z,66.80
2023-02-12T17:29:48.964Z,66.90
2023-02-12T17:32:16.341Z,67.00
2023-02-12T17:34:49.100Z,67.20
2023-02-12T17:37:18.071Z,67.30
2023-02-12T17:39:45.618Z,67.40
2023-02-12T17:42:15.384Z,67.40
2023-02-12T17:44:42.704Z,67.50
2023-02-12T17:47:10.048Z,67.50
2023-02-12T17:49:40.410Z,67.60
2023-02-12T17:52:14.603Z,67.70
2023-02-12T17:54:46.734Z,67.80
2023-02-12T17:57:16.939Z,67.80
2023-02-12T17:59:46.671Z,67.70
2023-02-12T18:02:13.931Z,67.70
2023-02-12T18:04:41.484Z,67.80
2023-02-12T18:07:08.868Z,67.90
2023-02-12T18:09:39.583Z,67.80
2023-02-12T18:12:07.519Z,67.90
2023-02-12T18:14:34.984Z,67.90
2023-02-12T18:17:02.231Z,67.80
2023-02-12T18:19:29.924Z,67.90
2023-02-12T18:21:57.199Z,67.90
2023-02-12T18:24:24.520Z,67.90
2023-02-12T18:26:51.833Z,68.00
2023-02-12T18:29:19.129Z,68.10
2023-02-12T18:31:48.703Z,68.10
2023-02-12T18:34:15.977Z,68.20
2023-02-12T18:36:47.793Z,67.90
2023-02-12T18:39:15.024Z,68.20
2023-02-12T18:41:44.655Z,68.20
2023-02-12T18:44:12.030Z,68.00
2023-02-12T18:49:23.052Z,68.20
2023-02-12T18:51:50.594Z,68.40
2023-02-12T18:54:18.027Z,68.40
2023-02-12T18:56:47.234Z,68.50
2023-02-12T18:59:15.709Z,68.60
2023-02-12T19:01:43.445Z,68.60
2023-02-12T19:04:12.798Z,68.60
2023-02-12T19:06:47.440Z,68.70
2023-02-12T19:09:17.469Z,68.60
2023-02-12T19:11:46.754Z,68.60
2023-02-12T19:14:15.122Z,68.60
2023-02-12T19:16:44.909Z,68.60
2023-02-12T19:19:13.851Z,68.70
2023-02-12T19:21:44.336Z,68.80
2023-02-12T19:24:13.992Z,68.80
2023-02-12T19:26:44.375Z,68.90
2023-02-12T19:29:13.582Z,68.90
2023-02-12T19:31:46.735Z,69.10
2023-02-12T19:34:22.261Z,69.20
2023-02-12T19:36:50.504Z,69.30
2023-02-12T19:39:23.583Z,69.30
2023-02-12T19:41:56.157Z,69.40
2023-02-12T19:44:24.886Z,69.50
2023-02-12T19:46:53.041Z,69.40
2023-02-12T19:49:23.396Z,69.60
2023-02-12T19:51:53.372Z,69.70
2023-02-12T19:54:26.298Z,69.70
2023-02-12T19:56:55.433Z,69.70
2023-02-12T19:59:24.953Z,69.80
2023-02-12T20:01:52.572Z,69.80
2023-02-12T20:04:22.404Z,69.80
2023-02-12T20:06:51.335Z,69.80
2023-02-12T20:09:21.089Z,69.80
2023-02-12T20:11:50.824Z,69.80
2023-02-12T20:14:22.717Z,69.80
2023-02-12T20:16:53.525Z,69.90
2023-02-12T20:19:27.096Z,70.00
2023-02-12T20:21:56.600Z,70.00
2023-02-12T20:24:31.749Z,69.90
2023-02-12T20:27:02.954Z,69.90
2023-02-12T20:29:30.643Z,69.80
2023-02-12T20:32:02.681Z,69.60
2023-02-12T20:34:32.917Z,69.60
2023-02-12T20:37:07.553Z,69.50
2023-02-12T20:39:34.849Z,69.50
2023-02-12T20:42:04.399Z,69.60
2023-02-12T20:44:34.108Z,69.70
2023-02-12T20:47:01.445Z,69.80
2023-02-12T20:49:28.745Z,69.80
2023-02-12T20:51:56.029Z,69.80
2023-02-12T20:54:23.499Z,69.80
2023-02-12T20:56:50.899Z,69.80
2023-02-12T20:59:18.865Z,69.80
2023-02-12T21:01:46.914Z,69.80
2023-02-12T21:04:16.821Z,69.80
2023-02-12T21:06:48.348Z,69.90
2023-02-12T21:09:16.101Z,69.90
2023-02-12T21:11:47.111Z,69.80
2023-02-12T21:14:23.583Z,69.80
2023-02-12T21:16:54.297Z,70.50
2023-02-12T21:19:27.246Z,69.90
2023-02-12T21:21:54.638Z,69.90
2023-02-12T21:24:24.881Z,69.80
2023-02-12T21:26:56.181Z,69.90
2023-02-12T21:29:27.552Z,69.80
2023-02-12T21:31:57.132Z,69.70
2023-02-12T21:34:24.642Z,69.70
2023-02-12T21:36:55.616Z,69.80
2023-02-12T21:39:27.232Z,69.90
2023-02-12T21:42:02.997Z,69.90
2023-02-12T21:44:32.807Z,69.90
2023-02-12T21:47:00.192Z,69.80
2023-02-12T21:49:29.772Z,69.80
2023-02-12T21:52:06.569Z,69.80
2023-02-12T21:54:36.785Z,69.80
2023-02-12T21:57:04.204Z,69.80
2023-02-12T21:59:32.455Z,69.80
2023-02-12T22:02:02.919Z,69.60
2023-02-12T22:04:32.783Z,69.60
2023-02-12T22:07:03.470Z,69.50
2023-02-12T22:09:31.097Z,69.60
2023-02-12T22:12:02.969Z,69.60
2023-02-12T22:14:30.394Z,69.60
2023-02-12T22:16:57.842Z,69.60
2023-02-12T22:19:27.509Z,69.50
2023-02-12T22:21:54.812Z,69.60
2023-02-12T22:24:22.158Z,69.70
2023-02-12T22:26:49.652Z,69.70
2023-02-12T22:29:17.420Z,69.80
2023-02-12T22:31:48.580Z,69.70
2023-02-12T22:34:18.618Z,69.80
2023-02-12T22:36:48.994Z,69.90
2023-02-12T22:39:17.677Z,69.90
2023-02-12T22:41:45.293Z,69.90
2023-02-12T22:44:13.888Z,69.90
2023-02-12T22:46:43.112Z,69.80
2023-02-12T22:49:10.673Z,70.50
2023-02-12T22:51:40.805Z,69.90
2023-02-12T22:54:12.227Z,70.10
2023-02-12T22:56:39.499Z,70.00
2023-02-12T22:59:06.913Z,70.00
2023-02-12T23:01:34.223Z,70.00
2023-02-12T23:04:01.616Z,70.10
2023-02-12T23:06:31.002Z,70.00
2023-02-12T23:09:03.861Z,70.10
2023-02-12T23:11:34.886Z,70.20
2023-02-12T23:14:02.226Z,70.20
2023-02-12T23:16:31.685Z,70.20
2023-02-12T23:19:01.340Z,70.20
2023-02-12T23:21:32.432Z,70.40
2023-02-12T23:23:59.938Z,70.50
2023-02-12T23:26:28.920Z,70.50
2023-02-12T23:28:57.031Z,70.50
2023-02-12T23:31:24.910Z,70.50
2023-02-12T23:33:54.542Z,70.50
2023-02-12T23:36:22.085Z,70.50
2023-02-12T23:38:49.414Z,70.50
2023-02-12T23:41:16.670Z,70.50
2023-02-12T23:43:46.169Z,70.50
2023-02-12T23:46:15.723Z,70.50
2023-02-12T23:48:44.535Z,70.50
2023-02-12T23:51:11.858Z,70.50
2023-02-12T23:53:41.555Z,70.60
2023-02-12T23:56:11.159Z,70.60
2023-02-12T23:58:38.483Z,70.60
